createdAt,value
2023-04-26T00:00:00.204Z,1.48
2023-04-26T00:02:27.952Z,1.58
2023-04-26T00:04:58.931Z,1.38
2023-04-26T00:07:25.667Z,1.77
2023-04-26T00:09:55.001Z,1.30
2023-04-26T00:12:21.945Z,1.63
2023-04-26T00:14:48.289Z,1.40
2023-04-26T00:17:14.657Z,1.67
2023-04-26T00:19:41.040Z,1.38
2023-04-26T00:22:08.654Z,1.73
2023-04-26T00:24:35.035Z,1.60
2023-04-26T00:27:01.511Z,1.50
2023-04-26T00:29:27.893Z,1.40
2023-04-26T00:31:54.296Z,1.75
2023-04-26T00:34:20.755Z,1.95
2023-04-26T00:36:47.079Z,1.52
2023-04-26T00:39:13.375Z,1.17
2023-04-26T00:41:39.691Z,1.77
2023-04-26T00:44:06.757Z,1.65
2023-04-26T00:46:33.112Z,1.63
2023-04-26T00:48:59.497Z,1.30
2023-04-26T00:51:27.171Z,1.60
2023-04-26T00:53:53.669Z,1.52
2023-04-26T00:56:21.001Z,2.00
2023-04-26T00:58:47.638Z,1.30
2023-04-26T01:01:14.126Z,1.45
2023-04-26T01:03:40.931Z,2.00
2023-04-26T01:06:07.447Z,1.52
2023-04-26T01:08:33.959Z,1.42
2023-04-26T01:11:00.455Z,1.48
2023-04-26T01:13:27.305Z,1.55
2023-04-26T01:15:55.662Z,1.75
2023-04-26T01:18:22.154Z,1.33
2023-04-26T01:20:48.638Z,1.20
2023-04-26T01:23:14.975Z,1.77
2023-04-26T01:25:41.476Z,1.33
2023-04-26T01:28:07.803Z,1.92
2023-04-26T01:30:34.177Z,1.83
2023-04-26T01:33:01.034Z,1.65
2023-04-26T01:35:27.742Z,1.73
2023-04-26T01:37:54.119Z,1.58
2023-04-26T01:40:20.572Z,1.05
2023-04-26T01:42:47.177Z,1.70
2023-04-26T01:45:13.522Z,1.92
2023-04-26T01:47:40.046Z,1.60
2023-04-26T01:50:07.013Z,1.55
2023-04-26T01:52:33.327Z,1.35
2023-04-26T01:54:59.677Z,1.60
2023-04-26T01:57:26.058Z,1.60
2023-04-26T01:59:52.392Z,1.58
2023-04-26T02:02:19.035Z,1.50
2023-04-26T02:04:45.500Z,1.38
2023-04-26T02:07:11.899Z,1.77
2023-04-26T02:09:38.243Z,1.40
2023-04-26T02:12:04.634Z,1.60
2023-04-26T02:14:30.925Z,1.50
2023-04-26T02:16:57.255Z,1.33
2023-04-26T02:19:23.645Z,2.13
2023-04-26T02:21:51.467Z,1.55
2023-04-26T02:24:17.841Z,1.67
2023-04-26T02:26:44.138Z,1.73
2023-04-26T02:29:10.565Z,1.70
2023-04-26T02:31:36.932Z,1.65
2023-04-26T02:34:03.291Z,1.63
2023-04-26T02:36:30.023Z,1.50
2023-04-26T02:38:56.343Z,2.15
2023-04-26T02:41:23.531Z,1.60
2023-04-26T02:43:49.873Z,2.13
2023-04-26T02:46:17.304Z,1.50
2023-04-26T02:48:43.860Z,1.60
2023-04-26T02:51:11.090Z,1.80
2023-04-26T02:53:37.476Z,1.40
2023-04-26T02:56:03.833Z,1.55
2023-04-26T02:58:30.162Z,2.00
2023-04-26T03:00:59.618Z,1.70
2023-04-26T03:03:27.763Z,1.58
2023-04-26T03:05:54.335Z,1.95
2023-04-26T03:08:20.741Z,1.50
2023-04-26T03:10:47.156Z,1.40
2023-04-26T03:13:13.575Z,1.48
2023-04-26T03:15:43.746Z,1.70
2023-04-26T03:18:10.109Z,1.60
2023-04-26T03:20:36.518Z,1.60
2023-04-26T03:23:02.836Z,1.40
2023-04-26T03:25:29.123Z,1.80
2023-04-26T03:27:56.692Z,1.60
2023-04-26T03:30:22.993Z,1.60
2023-04-26T03:32:49.607Z,1.33
2023-04-26T03:35:16.080Z,1.63
2023-04-26T03:37:42.959Z,1.63
2023-04-26T03:40:09.885Z,1.75
2023-04-26T03:42:36.982Z,2.00
2023-04-26T03:45:04.059Z,1.60
2023-04-26T03:47:31.209Z,1.73
2023-04-26T03:49:57.543Z,1.75
2023-04-26T03:52:24.061Z,1.90
2023-04-26T03:54:50.705Z,1.80
2023-04-26T03:57:17.028Z,1.60
2023-04-26T03:59:43.361Z,1.60
2023-04-26T04:02:09.937Z,1.60
2023-04-26T04:04:37.328Z,1.90
2023-04-26T04:07:03.720Z,1.80
2023-04-26T04:09:30.047Z,1.50
2023-04-26T04:11:56.385Z,1.75
2023-04-26T04:14:22.732Z,1.50
2023-04-26T04:16:49.181Z,1.98
2023-04-26T04:19:15.492Z,2.08
2023-04-26T04:21:43.238Z,1.75
2023-04-26T04:24:09.656Z,1.75
2023-04-26T04:26:35.990Z,1.90
2023-04-26T04:29:09.159Z,1.63
2023-04-26T04:31:36.277Z,1.98
2023-04-26T04:34:02.611Z,2.13
2023-04-26T04:36:28.865Z,1.67
2023-04-26T04:38:55.294Z,1.88
2023-04-26T04:41:22.331Z,1.98
2023-04-26T04:43:48.654Z,2.05
2023-04-26T04:46:15.469Z,1.83
2023-04-26T04:48:42.264Z,1.95
2023-04-26T04:51:08.615Z,1.60
2023-04-26T04:53:34.990Z,1.90
2023-04-26T04:56:01.470Z,1.67
2023-04-26T04:58:27.761Z,2.10
2023-04-26T05:00:55.620Z,2.00
2023-04-26T05:03:22.791Z,1.90
2023-04-26T05:05:49.255Z,1.70
2023-04-26T05:08:15.642Z,2.15
2023-04-26T05:10:41.990Z,2.40
2023-04-26T05:13:08.306Z,1.75
2023-04-26T05:15:34.660Z,1.70
2023-04-26T05:18:01.093Z,1.60
2023-04-26T05:20:27.479Z,2.10
2023-04-26T05:22:53.754Z,2.00
2023-04-26T05:25:22.305Z,2.42
2023-04-26T05:27:49.188Z,1.80
2023-04-26T05:30:40.870Z,1.90
2023-04-26T05:33:07.507Z,1.70
2023-04-26T05:35:33.952Z,2.00
2023-04-26T05:38:00.339Z,1.95
2023-04-26T05:40:29.702Z,1.63
2023-04-26T05:42:56.303Z,2.20
2023-04-26T05:45:22.943Z,2.13
2023-04-26T05:47:49.271Z,1.90
2023-04-26T05:50:15.684Z,1.80
2023-04-26T05:52:41.942Z,1.90
2023-04-26T05:55:08.946Z,1.80
2023-04-26T05:57:35.311Z,1.90
2023-04-26T06:00:01.785Z,2.15
2023-04-26T06:02:28.290Z,2.00
2023-04-26T06:04:55.016Z,1.98
2023-04-26T06:07:21.433Z,1.88
2023-04-26T06:09:47.776Z,1.92
2023-04-26T06:12:14.056Z,1.90
2023-04-26T06:14:40.537Z,1.92
2023-04-26T06:17:06.926Z,1.77
2023-04-26T06:19:34.385Z,2.40
2023-04-26T06:22:02.042Z,2.10
2023-04-26T06:24:28.363Z,2.13
2023-04-26T06:26:54.706Z,2.20
2023-04-26T06:29:21.603Z,1.73
2023-04-26T06:31:47.917Z,2.35
2023-04-26T06:34:14.559Z,1.80
2023-04-26T06:36:43.370Z,1.85
2023-04-26T06:39:09.729Z,2.03
2023-04-26T06:41:37.909Z,1.95
2023-04-26T06:44:04.306Z,2.10
2023-04-26T06:46:30.659Z,2.22
2023-04-26T06:48:57.073Z,2.80
2023-04-26T06:51:23.428Z,2.13
2023-04-26T06:53:49.886Z,2.15
2023-04-26T06:56:16.358Z,2.38
2023-04-26T06:58:59.002Z,2.35
2023-04-26T07:01:26.435Z,2.55
2023-04-26T07:03:53.041Z,2.72
2023-04-26T07:06:19.618Z,2.28
2023-04-26T07:08:45.902Z,2.20
2023-04-26T07:11:13.282Z,2.67
2023-04-26T07:13:39.825Z,2.08
2023-04-26T07:16:07.859Z,2.40
2023-04-26T07:18:34.439Z,2.10
2023-04-26T07:21:00.727Z,2.17
2023-04-26T07:23:27.073Z,2.40
2023-04-26T07:25:54.828Z,2.25
2023-04-26T07:28:21.607Z,2.20
2023-04-26T07:30:47.918Z,2.60
2023-04-26T07:33:14.346Z,3.15
2023-04-26T07:35:40.821Z,2.30
2023-04-26T07:38:09.064Z,2.60
2023-04-26T07:40:36.377Z,2.42
2023-04-26T07:43:02.781Z,2.67
2023-04-26T07:45:29.145Z,2.33
2023-04-26T07:47:55.529Z,2.67
2023-04-26T07:50:21.913Z,2.20
2023-04-26T07:52:48.287Z,2.60
2023-04-26T07:55:16.497Z,2.47
2023-04-26T07:57:44.053Z,2.20
2023-04-26T08:00:10.980Z,2.42
2023-04-26T08:05:09.834Z,2.70
2023-04-26T08:07:36.626Z,2.45
2023-04-26T08:10:02.921Z,2.30
2023-04-26T08:12:29.180Z,2.30
2023-04-26T08:14:55.662Z,2.30
2023-04-26T08:17:22.180Z,2.22
2023-04-26T08:19:48.563Z,2.10
2023-04-26T08:22:14.909Z,2.40
2023-04-26T08:24:41.419Z,2.60
2023-04-26T08:27:07.758Z,2.00
2023-04-26T08:29:34.126Z,2.53
2023-04-26T08:32:00.465Z,2.17
2023-04-26T08:34:28.431Z,2.38
2023-04-26T08:36:57.493Z,2.28
2023-04-26T08:39:24.181Z,2.35
2023-04-26T08:41:54.492Z,2.42
2023-04-26T08:44:24.731Z,2.08
2023-04-26T08:46:51.050Z,2.03
2023-04-26T08:49:32.035Z,2.25
2023-04-26T08:51:58.566Z,2.22
2023-04-26T08:54:25.833Z,2.13
2023-04-26T08:56:56.257Z,2.67
2023-04-26T08:59:23.011Z,2.20
2023-04-26T09:01:49.521Z,2.00
2023-04-26T09:04:16.585Z,2.30
2023-04-26T09:06:43.435Z,1.77
2023-04-26T09:09:10.640Z,1.95
2023-04-26T09:11:59.827Z,2.15
2023-04-26T09:14:27.524Z,1.65
2023-04-26T09:16:54.564Z,2.05
2023-04-26T09:19:42.449Z,1.90
2023-04-26T09:22:09.232Z,1.70
2023-04-26T09:24:48.655Z,2.10
2023-04-26T09:27:17.698Z,1.80
2023-04-26T09:30:20.871Z,2.05
2023-04-26T09:32:47.314Z,1.90
2023-04-26T09:35:19.063Z,1.88
2023-04-26T09:37:59.228Z,1.92
2023-04-26T09:40:28.245Z,1.90
2023-04-26T09:43:04.010Z,1.88
2023-04-26T09:45:31.309Z,2.00
2023-04-26T09:48:17.909Z,2.17
2023-04-26T09:50:46.157Z,1.70
2023-04-26T09:53:25.627Z,2.13
2023-04-26T09:55:51.977Z,2.10
2023-04-26T09:58:18.325Z,1.92
2023-04-26T10:00:44.942Z,2.33
2023-04-26T10:03:12.131Z,1.77
2023-04-26T10:05:38.835Z,2.38
2023-04-26T10:08:06.706Z,1.52
2023-04-26T10:10:33.653Z,2.15
2023-04-26T10:13:00.062Z,2.20
2023-04-26T10:15:26.496Z,1.98
2023-04-26T10:17:53.077Z,1.70
2023-04-26T10:20:20.621Z,1.70
2023-04-26T10:22:51.516Z,1.85
2023-04-26T10:25:17.930Z,2.00
2023-04-26T10:27:44.504Z,1.60
2023-04-26T10:30:18.175Z,1.80
2023-04-26T10:32:56.720Z,1.80
2023-04-26T10:35:27.534Z,1.67
2023-04-26T10:37:59.676Z,1.63
2023-04-26T10:40:30.389Z,1.70
2023-04-26T10:43:09.805Z,1.83
2023-04-26T10:45:36.712Z,1.67
2023-04-26T10:48:21.974Z,1.83
2023-04-26T10:51:12.480Z,1.45
2023-04-26T10:53:48.180Z,1.50
2023-04-26T10:56:23.951Z,1.48
2023-04-26T10:59:22.553Z,1.77
2023-04-26T11:01:53.568Z,1.60
2023-04-26T11:04:20.162Z,1.60
2023-04-26T11:07:00.824Z,1.40
2023-04-26T11:09:37.099Z,1.33
2023-04-26T11:12:13.658Z,1.70
2023-04-26T11:14:43.320Z,1.70
2023-04-26T11:17:10.247Z,1.50
2023-04-26T11:19:36.904Z,1.70
2023-04-26T11:22:06.587Z,1.30
2023-04-26T11:24:33.475Z,1.30
2023-04-26T11:26:59.756Z,1.52
2023-04-26T11:29:26.360Z,1.55
2023-04-26T11:31:53.575Z,1.58
2023-04-26T11:34:26.824Z,1.75
2023-04-26T11:36:53.418Z,1.30
2023-04-26T11:39:20.682Z,1.75
2023-04-26T11:41:47.125Z,1.58
2023-04-26T11:44:13.765Z,1.63
2023-04-26T11:46:40.237Z,1.50
2023-04-26T11:49:08.149Z,1.65
2023-04-26T11:51:34.597Z,1.67
2023-04-26T11:54:01.840Z,1.42
2023-04-26T11:56:28.401Z,1.90
2023-04-26T11:58:54.940Z,1.80
2023-04-26T12:01:23.209Z,1.52
2023-04-26T12:03:50.596Z,1.80
2023-04-26T12:06:19.009Z,1.35
2023-04-26T12:08:52.308Z,1.52
2023-04-26T12:11:19.866Z,1.77
2023-04-26T12:13:47.520Z,1.88
2023-04-26T12:16:25.624Z,2.30
2023-04-26T12:18:53.406Z,1.60
2023-04-26T12:21:20.506Z,1.58
2023-04-26T12:23:49.923Z,1.40
2023-04-26T12:26:17.013Z,1.75
2023-04-26T12:28:43.338Z,1.67
2023-04-26T12:31:09.812Z,1.75
2023-04-26T12:33:36.575Z,1.65
2023-04-26T12:36:07.010Z,1.65
2023-04-26T12:38:33.942Z,1.70
2023-04-26T12:41:01.244Z,1.48
2023-04-26T12:43:27.682Z,1.92
2023-04-26T12:45:54.066Z,1.73
2023-04-26T12:48:20.772Z,1.25
2023-04-26T12:50:47.262Z,1.35
2023-04-26T12:53:14.137Z,1.65
2023-04-26T12:55:40.620Z,1.50
2023-04-26T12:58:07.012Z,1.80
2023-04-26T13:00:33.536Z,1.60
2023-04-26T13:03:00.020Z,1.70
2023-04-26T13:05:26.925Z,1.83
2023-04-26T13:07:53.637Z,1.70
2023-04-26T13:10:20.030Z,1.73
2023-04-26T13:12:46.544Z,1.75
2023-04-26T13:15:12.869Z,1.50
2023-04-26T13:17:39.216Z,1.65
2023-04-26T13:20:06.587Z,1.80
2023-04-26T13:22:33.214Z,1.85
2023-04-26T13:24:59.645Z,1.80
2023-04-26T13:27:27.410Z,1.67
2023-04-26T13:29:54.821Z,1.75
2023-04-26T13:32:25.082Z,1.75
2023-04-26T13:34:51.857Z,1.85
2023-04-26T13:37:20.324Z,1.90
2023-04-26T13:39:47.242Z,1.70
2023-04-26T13:42:14.317Z,2.00
2023-04-26T13:44:40.971Z,1.80
2023-04-26T13:47:07.552Z,1.80
2023-04-26T13:49:33.905Z,1.73
2023-04-26T13:52:00.417Z,1.60
2023-04-26T13:54:28.980Z,1.60
2023-04-26T13:56:55.328Z,1.70
2023-04-26T13:59:21.710Z,1.70
2023-04-26T14:01:48.136Z,1.75
2023-04-26T14:04:15.500Z,1.88
2023-04-26T14:06:44.099Z,1.83
2023-04-26T14:09:13.758Z,2.03
2023-04-26T14:11:40.214Z,1.92
2023-04-26T14:14:06.613Z,1.80
2023-04-26T14:16:33.223Z,1.67
2023-04-26T14:18:59.718Z,1.70
2023-04-26T14:21:26.857Z,2.00
2023-04-26T14:23:53.633Z,1.80
2023-04-26T14:26:29.351Z,1.80
2023-04-26T14:28:55.833Z,2.00
2023-04-26T14:31:24.288Z,1.50
2023-04-26T14:33:51.678Z,1.70
2023-04-26T14:36:17.993Z,1.70
2023-04-26T14:38:45.025Z,1.50
2023-04-26T14:41:18.013Z,1.75
2023-04-26T14:43:46.280Z,1.45
2023-04-26T14:46:13.162Z,1.70
2023-04-26T14:48:39.670Z,1.95
2023-04-26T14:51:06.575Z,1.42
2023-04-26T14:53:32.916Z,1.70
2023-04-26T14:56:00.349Z,1.50
2023-04-26T14:58:27.188Z,1.65
2023-04-26T15:00:54.154Z,1.60
2023-04-26T15:03:20.952Z,1.90
2023-04-26T15:05:47.447Z,1.77
2023-04-26T15:08:13.863Z,2.15
2023-04-26T15:10:40.248Z,1.92
2023-04-26T15:13:06.543Z,1.90
2023-04-26T15:15:32.909Z,2.05
2023-04-26T15:17:59.522Z,1.70
2023-04-26T15:20:25.892Z,2.03
2023-04-26T15:22:52.252Z,1.73
2023-04-26T15:25:18.756Z,2.00
2023-04-26T15:27:47.053Z,1.88
2023-04-26T15:30:13.557Z,1.88
2023-04-26T15:32:39.956Z,1.95
2023-04-26T15:35:07.592Z,2.10
2023-04-26T15:37:36.458Z,1.90
2023-04-26T15:40:02.947Z,2.03
2023-04-26T15:42:29.332Z,1.90
2023-04-26T15:44:55.759Z,1.77
2023-04-26T15:47:22.192Z,2.10
2023-04-26T15:49:48.534Z,2.08
2023-04-26T15:52:16.985Z,2.03
2023-04-26T15:54:43.772Z,1.98
2023-04-26T15:57:10.387Z,1.95
2023-04-26T15:59:36.710Z,2.00
2023-04-26T16:02:03.037Z,2.00
2023-04-26T16:04:29.512Z,1.98
2023-04-26T16:06:56.219Z,2.10
2023-04-26T16:09:25.185Z,2.00
2023-04-26T16:11:52.328Z,2.08
2023-04-26T16:14:18.660Z,2.03
2023-04-26T16:16:46.138Z,2.03
2023-04-26T16:19:12.646Z,2.42
2023-04-26T16:21:40.166Z,1.98
2023-04-26T16:24:08.841Z,2.08
2023-04-26T16:26:35.607Z,2.00
2023-04-26T16:29:01.954Z,2.30
2023-04-26T16:31:28.238Z,2.67
2023-04-26T16:33:54.629Z,2.90
2023-04-26T16:36:21.029Z,2.33
2023-04-26T16:38:47.416Z,2.13
2023-04-26T16:41:13.756Z,2.10
2023-04-26T16:43:40.271Z,2.33
2023-04-26T16:46:07.849Z,2.10
2023-04-26T16:48:34.998Z,1.90
2023-04-26T16:51:02.188Z,2.33
2023-04-26T16:53:29.557Z,3.00
2023-04-26T16:55:56.478Z,2.40
2023-04-26T16:58:23.046Z,2.67
2023-04-26T17:00:49.341Z,2.28
2023-04-26T17:03:16.410Z,2.50
2023-04-26T17:05:43.633Z,2.50
2023-04-26T17:08:10.008Z,2.55
2023-04-26T17:10:36.971Z,2.70
2023-04-26T17:13:04.185Z,2.75
2023-04-26T17:15:30.996Z,2.05
2023-04-26T17:17:57.443Z,2.58
2023-04-26T17:20:23.795Z,2.63
2023-04-26T17:22:50.097Z,2.42
2023-04-26T17:25:16.582Z,2.95
2023-04-26T17:27:43.028Z,2.60
2023-04-26T17:30:09.410Z,2.90
2023-04-26T17:32:35.745Z,2.88
2023-04-26T17:35:02.081Z,3.05
2023-04-26T17:37:28.604Z,3.20
2023-04-26T17:39:54.980Z,3.05
2023-04-26T17:42:21.278Z,3.05
2023-04-26T17:44:47.569Z,3.38
2023-04-26T17:47:13.834Z,2.88
2023-04-26T17:49:40.082Z,3.20
2023-04-26T17:52:06.329Z,3.17
2023-04-26T17:54:32.851Z,3.03
2023-04-26T17:56:59.134Z,3.67
2023-04-26T17:59:25.421Z,3.70
2023-04-26T18:01:51.853Z,4.00
2023-04-26T18:04:18.337Z,3.80
2023-04-26T18:06:44.765Z,3.35
2023-04-26T18:09:11.137Z,3.72
2023-04-26T18:11:37.500Z,3.67
2023-04-26T18:14:03.758Z,3.40
2023-04-26T18:16:30.130Z,3.22
2023-04-26T18:18:56.508Z,3.10
2023-04-26T18:21:22.836Z,3.25
2023-04-26T18:23:49.146Z,3.00
2023-04-26T18:26:15.601Z,2.80
2023-04-26T18:28:44.703Z,3.50
2023-04-26T18:31:11.481Z,2.45
2023-04-26T18:33:37.848Z,3.65
2023-04-26T18:36:04.611Z,2.58
2023-04-26T18:38:30.896Z,2.90
2023-04-26T18:41:00.529Z,2.15
2023-04-26T18:43:26.823Z,3.08
2023-04-26T18:45:53.336Z,2.92
2023-04-26T18:48:19.634Z,2.58
2023-04-26T18:50:49.629Z,2.55
2023-04-26T18:53:15.911Z,2.33
2023-04-26T18:55:42.235Z,2.67
2023-04-26T18:58:08.887Z,3.10
2023-04-26T19:00:35.120Z,2.60
2023-04-26T19:03:01.517Z,2.70
2023-04-26T19:05:27.955Z,2.45
2023-04-26T19:07:54.315Z,2.83
2023-04-26T19:10:21.295Z,2.70
2023-04-26T19:12:47.896Z,2.55
2023-04-26T19:15:14.300Z,2.63
2023-04-26T19:17:40.868Z,2.33
2023-04-26T19:20:12.271Z,3.15
2023-04-26T19:22:38.751Z,2.63
2023-04-26T19:25:05.333Z,2.47
2023-04-26T19:27:31.748Z,2.28
2023-04-26T19:29:58.206Z,2.17
2023-04-26T19:32:24.599Z,2.10
2023-04-26T19:34:52.114Z,2.45
2023-04-26T19:37:18.828Z,2.50
2023-04-26T19:39:45.137Z,2.40
2023-04-26T19:42:11.914Z,2.10
2023-04-26T19:44:39.605Z,2.42
2023-04-26T19:47:06.723Z,2.33
2023-04-26T19:49:33.031Z,2.35
2023-04-26T19:52:00.545Z,2.15
2023-04-26T19:54:26.827Z,2.33
2023-04-26T19:56:53.146Z,2.50
2023-04-26T19:59:19.476Z,2.70
2023-04-26T20:01:45.850Z,1.90
2023-04-26T20:04:12.268Z,2.30
2023-04-26T20:06:38.614Z,2.33
2023-04-26T20:09:06.931Z,2.63
2023-04-26T20:11:33.468Z,2.08
2023-04-26T20:13:59.707Z,2.10
2023-04-26T20:16:26.040Z,1.88
2023-04-26T20:18:59.918Z,2.80
2023-04-26T20:21:29.025Z,2.85
2023-04-26T20:23:55.592Z,2.47
2023-04-26T20:26:21.924Z,2.42
2023-04-26T20:28:49.738Z,2.83
2023-04-26T20:31:16.107Z,2.20
2023-04-26T20:33:42.371Z,2.25
2023-04-26T20:36:11.105Z,1.92
2023-04-26T20:38:37.406Z,2.00
2023-04-26T20:41:03.731Z,2.47
2023-04-26T20:43:30.036Z,2.20
2023-04-26T20:45:56.492Z,2.33
2023-04-26T20:48:24.049Z,1.77
2023-04-26T20:50:51.790Z,2.28
2023-04-26T20:53:18.100Z,2.30
2023-04-26T20:55:44.345Z,2.40
2023-04-26T20:58:13.036Z,2.10
2023-04-26T21:00:42.624Z,2.10
2023-04-26T21:03:09.334Z,2.05
2023-04-26T21:05:36.328Z,2.08
2023-04-26T21:08:02.628Z,2.20
2023-04-26T21:10:28.902Z,2.15
2023-04-26T21:12:55.299Z,2.17
2023-04-26T21:15:21.593Z,1.83
2023-04-26T21:17:47.903Z,2.00
2023-04-26T21:20:14.370Z,2.38
2023-04-26T21:22:40.720Z,2.03
2023-04-26T21:25:07.818Z,2.28
2023-04-26T21:27:34.150Z,1.95
2023-04-26T21:30:00.659Z,2.42
2023-04-26T21:32:27.037Z,1.73
2023-04-26T21:34:53.333Z,1.73
2023-04-26T21:37:27.290Z,1.80
2023-04-26T21:39:53.655Z,1.90
2023-04-26T21:42:19.901Z,2.17
2023-04-26T21:44:46.676Z,2.17
2023-04-26T21:47:12.999Z,1.90
2023-04-26T21:49:39.572Z,1.95
2023-04-26T21:52:05.897Z,2.00
2023-04-26T21:54:32.192Z,2.10
2023-04-26T21:56:58.437Z,2.35
2023-04-26T21:59:24.753Z,2.03
2023-04-26T22:01:51.092Z,2.20
2023-04-26T22:04:17.648Z,2.33
2023-04-26T22:06:44.124Z,2.40
2023-04-26T22:09:10.611Z,2.20
2023-04-26T22:11:37.119Z,2.33
2023-04-26T22:14:03.436Z,1.75
2023-04-26T22:16:29.808Z,2.40
2023-04-26T22:18:56.128Z,1.88
2023-04-26T22:21:22.504Z,2.58
2023-04-26T22:23:48.896Z,2.17
2023-04-26T22:26:15.558Z,2.42
2023-04-26T22:28:42.043Z,2.42
2023-04-26T22:31:08.383Z,1.80
2023-04-26T22:33:34.645Z,2.42
2023-04-26T22:36:01.354Z,2.15
2023-04-26T22:38:27.710Z,2.25
2023-04-26T22:40:54.094Z,2.33
2023-04-26T22:43:20.349Z,2.10
2023-04-26T22:45:46.732Z,1.85
2023-04-26T22:48:13.177Z,2.25
2023-04-26T22:50:39.528Z,2.25
2023-04-26T22:53:06.655Z,2.30
2023-04-26T22:55:33.000Z,2.05
2023-04-26T22:57:59.339Z,2.30
2023-04-26T23:00:26.017Z,2.67
2023-04-26T23:02:52.526Z,2.55
2023-04-26T23:05:18.946Z,2.38
2023-04-26T23:07:45.581Z,2.20
2023-04-26T23:10:12.117Z,2.10
2023-04-26T23:12:38.389Z,2.25
2023-04-26T23:15:05.909Z,2.20
2023-04-26T23:17:34.063Z,2.20
2023-04-26T23:20:00.580Z,2.30
2023-04-26T23:22:29.565Z,2.15
2023-04-26T23:24:55.885Z,2.20
2023-04-26T23:27:24.284Z,2.15
2023-04-26T23:29:51.572Z,2.47
2023-04-26T23:32:17.828Z,2.50
2023-04-26T23:34:44.076Z,2.05
2023-04-26T23:37:10.989Z,2.45
2023-04-26T23:39:37.228Z,1.80
2023-04-26T23:42:03.857Z,1.98
2023-04-26T23:44:30.426Z,2.17
2023-04-26T23:46:56.820Z,2.30
2023-04-26T23:49:23.186Z,2.10
2023-04-26T23:51:49.495Z,2.20
2023-04-26T23:54:16.403Z,2.40
2023-04-26T23:56:42.670Z,2.58
2023-04-26T23:59:08.934Z,2.00
